Time;durP1;ratioP1;P1;durP2;ratioP2;P2;SDS_P1;SDS_P2;PMS_P1;PMS_P2;Temp;Humidity;BMP_temperature;BMP_pressure;BME280_temperature;BME280_humidity;BME280_pressure;Samples;Min_cycle;Max_cycle;Signal;HPM_P1;HPM_P2
2022/02/19 00:01:33;;;;;;;3.90;1.53;;;8.50;62.00;;;;;;4992586;28;20431;-74
2022/02/19 00:03:59;;;;;;;7.17;1.50;;;8.50;62.30;;;;;;4977891;28;20443;-74
2022/02/19 00:06:25;;;;;;;4.17;1.90;;;8.50;61.90;;;;;;4973182;28;20538;-73
2022/02/19 00:08:51;;;;;;;8.67;1.90;;;8.40;62.30;;;;;;4970703;28;20558;-74
2022/02/19 00:11:17;;;;;;;4.43;1.50;;;8.40;62.30;;;;;;4966677;28;20538;-75
2022/02/19 00:13:43;;;;;;;9.40;1.93;;;8.40;62.50;;;;;;4977826;28;20206;-74
2022/02/19 00:16:08;;;;;;;6.00;1.57;;;8.40;62.50;;;;;;4971173;28;20253;-75
2022/02/19 00:18:34;;;;;;;3.23;1.60;;;8.40;62.50;;;;;;4967985;28;20274;-72
2022/02/19 00:21:00;;;;;;;8.73;2.00;;;8.40;62.60;;;;;;4970675;28;20187;-71
2022/02/19 00:23:28;;;;;;;9.33;2.00;;;8.40;62.90;;;;;;4966659;28;20202;-72
2022/02/19 00:25:54;;;;;;;7.47;1.70;;;8.40;62.20;;;;;;4969164;28;20465;-74
2022/02/19 00:28:20;;;;;;;5.70;1.50;;;8.40;61.20;;;;;;4966589;28;20443;-71
2022/02/19 00:30:45;;;;;;;11.40;1.40;;;8.40;60.70;;;;;;4972292;28;20437;-70
2022/02/19 00:33:11;;;;;;;8.00;1.67;;;8.40;60.60;;;;;;4976930;28;20195;-71
2022/02/19 00:35:37;;;;;;;6.07;1.70;;;8.40;60.60;;;;;;4980300;28;20367;-72
2022/02/19 00:38:03;;;;;;;9.90;2.00;;;8.40;60.40;;;;;;4970218;28;20254;-71
2022/02/19 00:40:28;;;;;;;5.00;1.77;;;8.40;58.90;;;;;;4968472;28;20191;-71
2022/02/19 00:42:54;;;;;;;10.23;2.10;;;8.40;59.10;;;;;;4970816;28;20187;-71
2022/02/19 00:45:20;;;;;;;2.90;1.60;;;8.40;59.60;;;;;;4968740;28;20262;-72
2022/02/19 00:47:45;;;;;;;6.37;2.10;;;8.40;60.00;;;;;;4969850;28;20191;-72
2022/02/19 00:50:11;;;;;;;9.20;2.43;;;8.30;60.10;;;;;;4968251;28;20712;-71
2022/02/19 00:52:37;;;;;;;6.13;2.87;;;8.30;59.90;;;;;;4972957;28;20198;-73
2022/02/19 00:55:03;;;;;;;7.57;2.10;;;8.30;59.70;;;;;;4969580;28;20285;-71
2022/02/19 00:57:29;;;;;;;3.70;1.53;;;8.30;60.00;;;;;;4959758;28;20215;-72
2022/02/19 00:59:54;;;;;;;8.27;1.77;;;8.30;60.00;;;;;;4970207;28;20430;-71
2022/02/19 01:02:20;;;;;;;4.73;2.07;;;8.30;59.90;;;;;;4962461;28;20504;-71
2022/02/19 01:04:46;;;;;;;18.03;2.27;;;8.30;59.60;;;;;;4969384;28;20191;-70
2022/02/19 01:07:12;;;;;;;6.40;1.90;;;8.30;59.30;;;;;;4969758;28;20299;-71
2022/02/19 01:09:37;;;;;;;6.50;2.03;;;8.30;59.10;;;;;;4964927;28;20195;-72
2022/02/19 01:12:03;;;;;;;13.27;1.83;;;8.30;58.40;;;;;;4967887;28;20577;-73
2022/02/19 01:14:29;;;;;;;5.90;1.73;;;8.30;58.80;;;;;;4970106;28;20194;-72
2022/02/19 01:16:55;;;;;;;6.77;1.77;;;8.30;58.40;;;;;;4977041;28;20816;-71
2022/02/19 01:19:21;;;;;;;10.60;2.07;;;8.30;58.80;;;;;;4971203;28;20233;-70
2022/02/19 01:21:46;;;;;;;9.90;1.60;;;8.30;58.50;;;;;;4971712;28;20997;-71
2022/02/19 01:24:12;;;;;;;3.50;1.60;;;8.30;58.40;;;;;;4963422;28;20791;-71
2022/02/19 01:26:38;;;;;;;4.00;1.40;;;8.30;58.20;;;;;;4967049;28;20270;-70
2022/02/19 01:29:05;;;;;;;2.93;1.20;;;8.30;58.40;;;;;;4959937;28;20187;-73
2022/02/19 01:31:32;;;;;;;7.30;2.67;;;8.30;58.10;;;;;;4967841;28;20330;-71
2022/02/19 01:33:57;;;;;;;5.40;1.60;;;8.30;57.70;;;;;;4967572;28;20466;-73
2022/02/19 01:36:23;;;;;;;4.40;1.50;;;8.30;58.20;;;;;;4968169;28;20450;-72
2022/02/19 01:38:49;;;;;;;8.40;1.90;;;8.30;58.40;;;;;;4962732;28;20229;-72
2022/02/19 01:41:14;;;;;;;8.93;2.00;;;8.30;58.10;;;;;;4960970;28;20195;-71
2022/02/19 01:43:40;;;;;;;9.67;2.10;;;8.20;56.90;;;;;;4961771;28;20187;-70
2022/02/19 01:46:06;;;;;;;6.60;1.70;;;8.20;57.20;;;;;;4963095;28;20203;-70
2022/02/19 01:48:32;;;;;;;10.17;2.50;;;8.20;57.60;;;;;;4957519;28;21298;-73
2022/02/19 01:50:57;;;;;;;7.00;2.20;;;8.20;57.80;;;;;;4963330;28;20216;-72
2022/02/19 01:53:23;;;;;;;3.40;1.50;;;8.20;57.20;;;;;;4963914;28;20525;-72
2022/02/19 01:55:50;;;;;;;7.60;1.67;;;8.20;57.30;;;;;;4959100;28;20208;-71
2022/02/19 01:58:16;;;;;;;5.73;1.53;;;8.20;56.60;;;;;;4962861;28;20518;-71
2022/02/19 02:00:42;;;;;;;5.73;1.60;;;8.10;56.20;;;;;;4964859;28;20438;-73
2022/02/19 02:03:08;;;;;;;6.00;1.63;;;8.10;56.40;;;;;;4969919;28;20426;-72
2022/02/19 02:05:34;;;;;;;4.47;1.60;;;8.00;56.20;;;;;;4978312;28;20483;-70
2022/02/19 02:08:05;;;;;;;3.10;1.40;;;8.00;56.40;;;;;;4969588;28;20195;-71
2022/02/19 02:10:33;;;;;;;3.97;1.70;;;8.00;55.80;;;;;;4970532;28;20917;-71
2022/02/19 02:12:59;;;;;;;4.90;1.53;;;8.00;54.80;;;;;;4974600;28;20422;-72
2022/02/19 02:15:27;;;;;;;3.77;2.03;;;8.00;54.80;;;;;;4969963;28;20454;-73
2022/02/19 02:17:52;;;;;;;6.70;1.47;;;8.00;55.20;;;;;;4964887;28;20811;-71
2022/02/19 02:20:18;;;;;;;9.20;2.10;;;8.00;54.90;;;;;;4970260;28;20485;-71
2022/02/19 02:22:45;;;;;;;5.07;1.47;;;8.00;55.20;;;;;;4970117;28;20180;-74
2022/02/19 02:25:12;;;;;;;6.03;1.63;;;7.90;55.30;;;;;;4964737;28;21008;-72
2022/02/19 02:27:38;;;;;;;5.43;1.50;;;7.90;55.20;;;;;;4967573;28;20431;-73
2022/02/19 02:30:04;;;;;;;6.77;1.77;;;7.90;55.20;;;;;;4968383;28;20430;-73
2022/02/19 02:32:31;;;;;;;4.80;1.80;;;7.90;55.40;;;;;;4965945;28;20894;-69
2022/02/19 02:34:57;;;;;;;7.43;1.80;;;7.90;55.30;;;;;;4964151;28;20442;-70
2022/02/19 02:37:24;;;;;;;5.70;2.13;;;7.80;55.60;;;;;;4964866;28;20427;-73
2022/02/19 02:39:51;;;;;;;5.50;2.20;;;7.80;56.00;;;;;;4970560;28;20430;-71
2022/02/19 02:42:19;;;;;;;6.27;2.00;;;7.80;55.60;;;;;;4962683;28;20477;-71
2022/02/19 02:44:45;;;;;;;3.83;1.53;;;7.70;56.00;;;;;;4971239;28;21577;-70
2022/02/19 02:47:12;;;;;;;5.80;1.73;;;7.70;55.70;;;;;;4967793;28;20451;-71
2022/02/19 02:49:39;;;;;;;6.00;1.87;;;7.70;55.70;;;;;;4970492;28;20422;-71
2022/02/19 02:52:07;;;;;;;8.80;1.50;;;7.70;55.80;;;;;;4966224;28;20717;-72
2022/02/19 02:54:33;;;;;;;6.50;2.17;;;7.70;55.80;;;;;;4969128;28;20504;-71
2022/02/19 02:56:59;;;;;;;9.37;2.23;;;7.70;56.00;;;;;;4969367;28;21140;-73
2022/02/19 02:59:25;;;;;;;4.67;1.60;;;7.60;56.00;;;;;;4971540;28;20211;-73
2022/02/19 03:01:51;;;;;;;5.30;1.67;;;7.60;56.10;;;;;;4965038;28;20771;-72
2022/02/19 03:04:17;;;;;;;6.97;2.43;;;7.60;56.50;;;;;;4968880;28;20183;-70
2022/02/19 03:06:42;;;;;;;7.43;2.73;;;7.60;56.40;;;;;;4965802;28;20211;-73
2022/02/19 03:09:08;;;;;;;9.80;1.80;;;7.60;56.40;;;;;;4976047;28;20434;-71
2022/02/19 03:11:35;;;;;;;9.57;1.87;;;7.60;56.50;;;;;;4969089;28;20780;-72
2022/02/19 03:14:02;;;;;;;12.90;1.90;;;7.60;56.90;;;;;;4972368;28;20269;-71
2022/02/19 03:16:28;;;;;;;6.53;2.03;;;7.50;56.80;;;;;;4966060;28;20835;-73
2022/02/19 03:18:54;;;;;;;4.93;2.00;;;7.50;56.60;;;;;;4967361;28;20467;-71
2022/02/19 03:21:20;;;;;;;4.30;1.93;;;7.50;56.40;;;;;;4971520;28;20481;-70
2022/02/19 03:23:46;;;;;;;4.63;1.60;;;7.50;56.50;;;;;;4971490;28;20513;-73
2022/02/19 03:26:12;;;;;;;3.23;1.37;;;7.50;56.50;;;;;;4969062;28;20214;-72
2022/02/19 03:28:38;;;;;;;5.63;1.37;;;7.40;56.80;;;;;;4962277;28;20457;-72
2022/02/19 03:31:04;;;;;;;4.90;1.80;;;7.40;56.60;;;;;;4968953;28;20801;-70
2022/02/19 03:33:30;;;;;;;5.00;1.60;;;7.40;56.60;;;;;;4972644;28;20534;-71
2022/02/19 03:35:55;;;;;;;7.60;1.80;;;7.40;56.50;;;;;;4964245;28;20276;-73
2022/02/19 03:38:21;;;;;;;6.97;1.70;;;7.40;56.60;;;;;;4972811;28;20361;-72
2022/02/19 03:40:48;;;;;;;6.80;2.20;;;7.40;56.90;;;;;;4969379;28;20199;-70
2022/02/19 03:43:13;;;;;;;5.00;2.00;;;7.30;56.60;;;;;;4969315;28;20766;-72
2022/02/19 03:45:43;;;;;;;6.77;2.13;;;7.30;56.50;;;;;;4961049;28;20435;-70
2022/02/19 03:48:10;;;;;;;8.93;1.70;;;7.30;57.00;;;;;;4966705;28;20626;-71
2022/02/19 03:50:36;;;;;;;7.10;1.40;;;7.30;57.60;;;;;;4968314;28;20934;-71
2022/02/19 03:53:02;;;;;;;7.83;1.80;;;7.20;57.40;;;;;;4966303;28;20415;-71
2022/02/19 03:55:28;;;;;;;5.07;1.80;;;7.20;57.40;;;;;;4964578;28;20466;-71
2022/02/19 03:57:54;;;;;;;4.57;1.60;;;7.20;57.80;;;;;;4969869;28;21156;-71
2022/02/19 04:00:20;;;;;;;9.43;2.33;;;7.20;58.00;;;;;;4967892;28;20179;-71
2022/02/19 04:02:45;;;;;;;6.07;2.13;;;7.20;58.20;;;;;;4969423;28;20275;-71
2022/02/19 04:05:13;;;;;;;8.07;1.67;;;7.10;58.50;;;;;;4963412;28;20450;-71
2022/02/19 04:07:39;;;;;;;6.20;1.77;;;7.10;58.20;;;;;;4965882;28;20179;-72
2022/02/19 04:10:06;;;;;;;7.40;1.90;;;7.10;58.50;;;;;;4968571;28;20419;-72
2022/02/19 04:12:32;;;;;;;7.20;2.00;;;7.10;57.80;;;;;;4972662;28;20415;-70
2022/02/19 04:14:57;;;;;;;6.10;1.47;;;7.00;58.10;;;;;;4966955;28;20942;-71
2022/02/19 04:17:23;;;;;;;7.00;1.80;;;7.00;57.80;;;;;;4972326;28;20426;-72
2022/02/19 04:19:50;;;;;;;10.03;2.10;;;7.00;56.60;;;;;;4965862;28;20294;-71
2022/02/19 04:22:20;;;;;;;6.40;1.70;;;6.90;56.60;;;;;;4970632;28;20435;-70
2022/02/19 04:24:46;;;;;;;5.20;1.50;;;6.90;55.80;;;;;;4973613;28;20818;-72
2022/02/19 04:27:15;;;;;;;6.10;2.53;;;6.90;56.20;;;;;;4972526;28;20869;-70
2022/02/19 04:29:41;;;;;;;5.83;1.80;;;6.80;56.60;;;;;;4964284;28;20423;-70
2022/02/19 04:32:08;;;;;;;8.10;2.90;;;6.80;56.50;;;;;;4972591;28;20780;-71
2022/02/19 04:34:34;;;;;;;4.53;1.50;;;6.80;56.40;;;;;;4967685;28;20606;-72
2022/02/19 04:37:00;;;;;;;4.70;1.47;;;6.70;56.50;;;;;;4972534;28;20500;-71
2022/02/19 04:39:26;;;;;;;3.70;1.47;;;6.70;56.50;;;;;;4966074;28;20489;-72
2022/02/19 04:41:52;;;;;;;4.63;1.50;;;6.70;56.80;;;;;;4972144;28;20550;-70
2022/02/19 04:44:17;;;;;;;5.97;1.70;;;6.70;57.30;;;;;;4972082;28;20430;-73
2022/02/19 04:46:43;;;;;;;7.30;1.50;;;6.60;57.30;;;;;;4970285;28;20439;-71
2022/02/19 04:49:09;;;;;;;4.20;1.50;;;6.60;57.60;;;;;;4964832;28;20555;-72
2022/02/19 04:51:35;;;;;;;7.40;2.03;;;6.50;57.70;;;;;;4972380;28;20306;-70
2022/02/19 04:54:01;;;;;;;2.87;1.47;;;6.50;57.80;;;;;;4968857;28;20427;-73
2022/02/19 04:56:27;;;;;;;6.47;2.00;;;6.50;57.80;;;;;;4963694;28;20465;-72
2022/02/19 04:58:53;;;;;;;8.80;1.93;;;6.40;58.10;;;;;;4967058;28;20211;-70
2022/02/19 05:01:19;;;;;;;4.63;1.73;;;6.40;58.40;;;;;;4975563;28;20233;-71
2022/02/19 05:03:45;;;;;;;8.40;1.93;;;6.30;58.40;;;;;;4974293;28;20883;-72
2022/02/19 05:06:13;;;;;;;4.70;2.17;;;6.30;58.20;;;;;;4972007;28;20453;-71
2022/02/19 05:08:42;;;;;;;11.73;2.67;;;6.30;58.40;;;;;;4967316;28;20215;-71
2022/02/19 05:11:08;;;;;;;7.10;1.70;;;6.30;58.50;;;;;;4972355;28;20411;-72
2022/02/19 05:13:34;;;;;;;5.40;1.87;;;6.30;58.70;;;;;;4972242;28;20422;-72
2022/02/19 05:16:00;;;;;;;19.23;1.83;;;6.30;58.20;;;;;;4966369;28;20546;-72
2022/02/19 05:18:26;;;;;;;7.20;1.50;;;6.20;58.40;;;;;;4970313;28;20581;-70
2022/02/19 05:20:52;;;;;;;6.93;1.67;;;6.20;58.20;;;;;;4971978;28;20217;-71
2022/02/19 05:23:20;;;;;;;6.80;1.67;;;6.20;58.40;;;;;;4967149;28;20184;-72
2022/02/19 05:25:46;;;;;;;9.90;1.80;;;6.20;58.50;;;;;;4971160;28;20462;-71
2022/02/19 05:28:12;;;;;;;7.27;1.80;;;6.30;58.50;;;;;;4964662;28;20439;-72
2022/02/19 05:30:38;;;;;;;11.40;2.10;;;6.20;58.70;;;;;;4968844;28;21153;-72
2022/02/19 05:33:04;;;;;;;10.47;2.27;;;6.20;58.90;;;;;;4966027;28;20277;-71
2022/02/19 05:35:30;;;;;;;4.87;1.70;;;6.20;58.90;;;;;;4967034;28;20218;-72
2022/02/19 05:37:56;;;;;;;9.07;2.13;;;6.10;59.20;;;;;;4968296;28;21473;-71
2022/02/19 05:40:21;;;;;;;8.53;1.50;;;6.10;58.90;;;;;;4963752;28;20194;-71
2022/02/19 05:42:47;;;;;;;9.47;2.17;;;6.10;59.20;;;;;;4971566;28;20437;-72
2022/02/19 05:45:13;;;;;;;9.70;1.50;;;6.10;59.30;;;;;;4970451;28;20602;-72
2022/02/19 05:47:39;;;;;;;9.47;1.50;;;6.10;59.30;;;;;;4964589;28;20246;-71
2022/02/19 05:50:05;;;;;;;5.50;1.80;;;6.00;59.60;;;;;;4971224;28;20418;-70
2022/02/19 05:52:31;;;;;;;8.03;1.83;;;6.00;59.70;;;;;;4971302;28;20473;-72
2022/02/19 05:54:57;;;;;;;7.73;1.77;;;6.00;59.70;;;;;;4967617;28;20426;-70
2022/02/19 05:57:23;;;;;;;3.87;1.70;;;6.00;59.90;;;;;;4963209;28;20294;-69
2022/02/19 05:59:50;;;;;;;7.30;1.90;;;6.00;60.10;;;;;;4965147;28;20210;-72
2022/02/19 06:02:16;;;;;;;5.23;1.67;;;6.00;60.30;;;;;;4976057;28;21181;-71
2022/02/19 06:04:42;;;;;;;11.47;2.03;;;5.90;60.10;;;;;;4965904;28;20838;-73
2022/02/19 06:07:07;;;;;;;11.70;2.30;;;5.90;60.10;;;;;;4970497;28;20442;-71
2022/02/19 06:09:33;;;;;;;8.10;1.60;;;5.90;60.60;;;;;;4967710;28;20698;-70
2022/02/19 06:11:59;;;;;;;10.27;2.00;;;5.90;60.60;;;;;;4975195;28;20199;-70
2022/02/19 06:14:25;;;;;;;6.60;1.80;;;5.80;60.60;;;;;;4973437;28;20665;-71
2022/02/19 06:16:50;;;;;;;6.23;1.70;;;5.80;60.60;;;;;;4965244;28;20239;-70
2022/02/19 06:19:17;;;;;;;8.87;1.80;;;5.70;61.00;;;;;;4974082;28;20317;-71
2022/02/19 06:21:43;;;;;;;8.53;2.47;;;5.70;61.30;;;;;;4974502;28;20268;-73
2022/02/19 06:24:08;;;;;;;10.57;2.10;;;5.70;61.20;;;;;;4976168;28;20431;-70
2022/02/19 06:26:34;;;;;;;3.37;1.60;;;5.70;61.20;;;;;;4975422;28;20199;-70
2022/02/19 06:29:00;;;;;;;5.23;1.77;;;5.70;61.50;;;;;;4985237;28;20247;-72
2022/02/19 06:31:26;;;;;;;10.70;1.87;;;5.70;61.30;;;;;;4989131;28;20442;-71
2022/02/19 06:33:52;;;;;;;5.87;1.73;;;5.70;61.30;;;;;;4990802;28;20433;-72
2022/02/19 06:36:18;;;;;;;5.00;1.60;;;5.70;60.90;;;;;;4978491;28;20304;-72
2022/02/19 06:38:46;;;;;;;6.33;1.83;;;5.70;61.00;;;;;;4976075;28;20482;-71
2022/02/19 06:41:12;;;;;;;4.40;2.10;;;5.70;61.30;;;;;;4975836;28;20481;-72
2022/02/19 06:43:38;;;;;;;14.17;2.40;;;5.60;61.30;;;;;;4970292;28;20418;-72
2022/02/19 06:46:04;;;;;;;11.07;1.57;;;5.60;61.50;;;;;;4970455;28;20525;-71
2022/02/19 06:48:30;;;;;;;7.63;1.87;;;5.60;61.60;;;;;;4970082;28;20505;-72
2022/02/19 06:50:57;;;;;;;6.23;1.77;;;5.60;61.70;;;;;;4979730;28;21383;-71
2022/02/19 06:53:23;;;;;;;20.07;2.53;;;5.60;61.70;;;;;;4977131;28;20557;-71
2022/02/19 06:55:49;;;;;;;7.70;2.67;;;5.60;61.60;;;;;;4979016;28;20446;-70
2022/02/19 06:58:14;;;;;;;3.10;1.73;;;5.60;61.60;;;;;;4978021;28;20486;-72
2022/02/19 07:00:40;;;;;;;5.07;1.50;;;5.50;61.70;;;;;;4979868;28;20190;-71
2022/02/19 07:03:06;;;;;;;8.77;1.90;;;5.60;62.20;;;;;;4974044;28;20331;-73
2022/02/19 07:05:32;;;;;;;23.73;2.47;;;5.50;62.20;;;;;;4975720;28;20673;-73
2022/02/19 07:07:58;;;;;;;10.03;2.13;;;5.50;61.90;;;;;;4972488;28;20195;-73
2022/02/19 07:10:24;;;;;;;8.60;2.20;;;5.50;62.20;;;;;;4978176;28;20507;-73
2022/02/19 07:12:49;;;;;;;9.60;2.17;;;5.50;62.00;;;;;;4979948;28;20905;-71
2022/02/19 07:15:20;;;;;;;7.00;1.60;;;5.50;61.90;;;;;;4979803;28;20207;-73
2022/02/19 07:17:51;;;;;;;7.37;1.90;;;5.50;61.90;;;;;;4978303;28;20233;-71
2022/02/19 07:20:19;;;;;;;4.70;1.47;;;5.60;61.70;;;;;;4973528;28;20458;-72
2022/02/19 07:22:45;;;;;;;4.33;1.20;;;5.60;61.90;;;;;;4974420;28;20428;-72
2022/02/19 07:25:10;;;;;;;4.30;1.50;;;5.60;61.90;;;;;;4976854;28;20434;-74
2022/02/19 07:27:38;;;;;;;7.33;1.70;;;5.70;61.90;;;;;;4976051;28;20180;-72
2022/02/19 07:30:06;;;;;;;11.03;2.20;;;5.70;61.50;;;;;;4976488;28;20187;-73
2022/02/19 07:32:32;;;;;;;9.20;1.60;;;5.60;61.50;;;;;;4970390;28;20422;-72
2022/02/19 07:34:58;;;;;;;7.50;1.60;;;5.60;61.70;;;;;;4978079;28;20522;-72
2022/02/19 07:37:24;;;;;;;12.30;2.00;;;5.70;61.50;;;;;;4977955;28;20560;-71
2022/02/19 07:39:51;;;;;;;6.70;1.70;;;5.70;61.30;;;;;;4978774;28;20473;-71
2022/02/19 07:42:16;;;;;;;5.73;1.80;;;5.70;61.60;;;;;;4971821;28;20423;-73
2022/02/19 07:44:42;;;;;;;7.80;1.90;;;5.80;61.70;;;;;;4966294;28;20430;-72
2022/02/19 07:47:08;;;;;;;6.40;2.60;;;5.90;61.70;;;;;;4969836;28;20207;-73
2022/02/19 08:00:32;;;;;;;4.13;1.37;;;6.20;60.60;;;;;;4972491;28;20418;-72
2022/02/19 08:02:57;;;;;;;7.07;1.57;;;6.20;60.60;;;;;;4975006;28;20427;-72
2022/02/19 08:05:23;;;;;;;5.67;1.67;;;6.20;60.60;;;;;;4966960;28;20300;-71
2022/02/19 08:07:49;;;;;;;7.00;2.40;;;6.30;60.90;;;;;;4969103;28;20642;-72
2022/02/19 08:10:14;;;;;;;4.30;1.63;;;6.30;60.40;;;;;;4973502;28;20183;-72
2022/02/19 08:12:40;;;;;;;11.37;2.63;;;6.20;60.60;;;;;;4974845;28;20553;-73
2022/02/19 08:15:06;;;;;;;8.87;1.80;;;6.10;61.00;;;;;;4975404;28;20209;-72
2022/02/19 08:17:32;;;;;;;8.13;1.87;;;6.20;61.30;;;;;;4976145;28;20186;-72
2022/02/19 08:19:58;;;;;;;8.13;1.40;;;6.30;61.00;;;;;;4974322;28;20462;-72
2022/02/19 08:22:24;;;;;;;8.90;1.90;;;6.30;60.90;;;;;;4976068;28;20183;-71
2022/02/19 08:24:50;;;;;;;3.27;1.30;;;6.30;60.90;;;;;;4974975;28;20446;-71
2022/02/19 08:27:16;;;;;;;6.93;1.70;;;6.20;60.70;;;;;;4971913;28;20462;-74
2022/02/19 08:29:41;;;;;;;5.27;1.67;;;6.30;61.00;;;;;;4973031;28;20815;-72
2022/02/19 08:32:07;;;;;;;5.07;1.57;;;6.30;60.90;;;;;;4975352;28;20195;-73
2022/02/19 08:34:33;;;;;;;8.50;2.13;;;6.30;60.40;;;;;;4969946;28;20270;-72
2022/02/19 08:36:59;;;;;;;4.67;1.60;;;6.30;60.30;;;;;;4966041;28;20538;-72
2022/02/19 08:39:25;;;;;;;3.73;1.87;;;6.20;60.60;;;;;;4971768;28;20747;-72
2022/02/19 08:41:51;;;;;;;5.43;2.03;;;6.20;60.60;;;;;;4973043;28;20191;-72
2022/02/19 08:44:17;;;;;;;6.30;1.67;;;6.20;61.00;;;;;;4971068;28;20183;-73
2022/02/19 08:46:43;;;;;;;5.57;2.70;;;6.30;60.90;;;;;;4972289;28;20504;-72
2022/02/19 08:49:08;;;;;;;7.00;2.33;;;6.30;60.70;;;;;;4972465;28;21297;-74
2022/02/19 08:51:34;;;;;;;12.03;2.23;;;6.30;60.60;;;;;;4967764;28;20639;-73
2022/02/19 08:54:00;;;;;;;11.27;2.80;;;6.30;60.40;;;;;;4963326;28;20286;-72
2022/02/19 08:56:25;;;;;;;6.90;2.00;;;6.30;60.30;;;;;;4965519;28;20225;-74
2022/02/19 08:58:51;;;;;;;5.10;1.80;;;6.40;60.40;;;;;;4966907;28;20215;-71
2022/02/19 09:01:17;;;;;;;7.57;2.47;;;6.50;60.60;;;;;;4965125;28;20187;-71
2022/02/19 09:03:43;;;;;;;7.57;2.40;;;6.50;59.60;;;;;;4968780;28;20183;-73
2022/02/19 09:06:08;;;;;;;7.90;2.10;;;6.60;59.60;;;;;;4970454;28;20215;-72
2022/02/19 09:08:34;;;;;;;11.50;1.83;;;6.60;59.20;;;;;;4961319;28;20235;-72
2022/02/19 09:11:00;;;;;;;4.13;1.60;;;6.60;59.20;;;;;;4965556;28;20295;-73
2022/02/19 09:13:26;;;;;;;12.77;2.10;;;6.60;59.60;;;;;;4972359;28;20227;-72
2022/02/19 09:15:51;;;;;;;8.13;2.20;;;6.70;58.90;;;;;;4968456;28;20219;-73
2022/02/19 09:18:17;;;;;;;6.30;2.20;;;6.70;58.80;;;;;;4972589;28;20203;-72
2022/02/19 09:20:43;;;;;;;5.53;2.17;;;6.70;59.10;;;;;;4970829;28;20482;-71
2022/02/19 09:23:08;;;;;;;8.53;1.80;;;6.70;59.10;;;;;;4967276;28;20192;-71
2022/02/19 09:25:34;;;;;;;9.63;3.10;;;6.80;58.70;;;;;;4970600;28;20660;-73
2022/02/19 09:28:00;;;;;;;9.70;2.00;;;6.80;58.70;;;;;;4963217;28;20205;-74
2022/02/19 09:30:27;;;;;;;3.70;1.50;;;6.80;58.50;;;;;;4968422;28;20262;-72
2022/02/19 09:32:52;;;;;;;5.30;1.57;;;6.80;57.60;;;;;;4967034;28;20513;-73
2022/02/19 09:35:18;;;;;;;7.30;1.80;;;6.90;57.30;;;;;;4971896;28;20537;-73
2022/02/19 09:37:44;;;;;;;7.80;2.00;;;6.90;57.00;;;;;;4961974;28;20554;-74
2022/02/19 09:40:11;;;;;;;5.80;2.00;;;6.90;56.80;;;;;;4966044;28;20190;-72
2022/02/19 09:42:38;;;;;;;4.17;2.20;;;6.70;56.80;;;;;;4971399;28;20827;-72
2022/02/19 09:45:07;;;;;;;5.17;1.97;;;6.80;56.60;;;;;;4964876;28;20425;-72
2022/02/19 09:47:35;;;;;;;4.33;1.70;;;6.80;56.00;;;;;;4975161;28;20430;-71
2022/02/19 09:50:01;;;;;;;6.53;2.00;;;6.90;56.40;;;;;;4974451;28;20492;-71
2022/02/19 09:52:28;;;;;;;8.47;1.53;;;6.90;56.60;;;;;;4972665;28;21216;-72
2022/02/19 09:54:58;;;;;;;14.80;2.07;;;7.00;56.20;;;;;;4971680;28;20566;-73
2022/02/19 09:57:24;;;;;;;2.80;1.50;;;7.00;56.40;;;;;;4971848;28;20449;-72
2022/02/19 09:59:50;;;;;;;5.80;1.93;;;7.00;56.50;;;;;;4971837;28;20580;-72
2022/02/19 10:02:16;;;;;;;5.83;1.60;;;7.00;56.60;;;;;;4971552;28;20717;-72
2022/02/19 10:04:45;;;;;;;7.33;1.70;;;7.10;56.80;;;;;;4968559;28;20461;-73
2022/02/19 10:07:18;;;;;;;5.13;1.70;;;7.20;55.80;;;;;;4971126;28;20258;-70
2022/02/19 10:09:47;;;;;;;4.73;1.70;;;7.20;55.30;;;;;;4978372;28;20484;-73
2022/02/19 10:12:15;;;;;;;20.83;2.27;;;7.20;55.30;;;;;;4970793;28;20449;-72
2022/02/19 10:14:45;;;;;;;4.60;2.00;;;7.20;55.70;;;;;;4965427;28;20428;-75
2022/02/19 10:17:18;;;;;;;8.87;2.90;;;7.30;55.20;;;;;;4962214;28;20520;-76
2022/02/19 10:19:50;;;;;;;3.23;1.40;;;7.30;55.40;;;;;;4967582;28;20988;-76
2022/02/19 10:22:19;;;;;;;4.20;1.50;;;7.40;54.90;;;;;;4969539;28;20453;-75
2022/02/19 10:24:47;;;;;;;4.30;1.70;;;7.40;55.00;;;;;;4967702;28;20915;-75
2022/02/19 10:27:13;;;;;;;6.10;2.80;;;7.50;54.90;;;;;;4971179;28;20458;-75
2022/02/19 10:29:53;;;;;;;5.00;1.67;;;7.50;54.90;;;;;;4973080;28;21356;-76
2022/02/19 10:32:19;;;;;;;11.43;3.33;;;7.60;54.40;;;;;;4969596;28;20521;-75
2022/02/19 10:35:05;;;;;;;7.03;1.87;;;7.60;54.10;;;;;;4969313;28;20439;-74
2022/02/19 10:37:41;;;;;;;5.30;2.00;;;7.50;54.60;;;;;;4967287;28;20488;-75
2022/02/19 10:40:08;;;;;;;7.40;1.90;;;7.50;55.20;;;;;;4968972;28;20477;-76
2022/02/19 10:42:36;;;;;;;5.83;1.70;;;7.60;54.90;;;;;;4969240;28;20420;-75
2022/02/19 10:45:11;;;;;;;7.13;1.30;;;7.70;54.10;;;;;;4966622;28;20855;-75
2022/02/19 10:47:37;;;;;;;7.20;1.73;;;7.80;53.40;;;;;;4973625;28;20426;-74
2022/02/19 10:50:10;;;;;;;2.90;1.60;;;8.10;52.40;;;;;;4972806;28;21003;-75
2022/02/19 10:52:41;;;;;;;5.30;1.50;;;8.50;50.60;;;;;;4957667;28;20427;-74
2022/02/19 10:55:14;;;;;;;4.57;1.60;;;8.80;50.20;;;;;;4967559;28;20427;-74
2022/02/19 10:57:42;;;;;;;9.60;1.90;;;9.20;49.90;;;;;;4965072;28;20478;-73
2022/02/19 11:00:16;;;;;;;6.53;1.70;;;9.60;48.50;;;;;;4965544;28;20814;-74
2022/02/19 11:02:44;;;;;;;4.93;1.57;;;10.00;47.40;;;;;;4974105;28;20418;-73
2022/02/19 11:05:11;;;;;;;6.30;1.40;;;9.60;46.70;;;;;;4975430;28;20498;-76
2022/02/19 11:07:41;;;;;;;5.40;1.70;;;9.20;48.20;;;;;;4980306;28;20522;-76
2022/02/19 11:10:10;;;;;;;12.23;1.73;;;9.30;48.30;;;;;;4964472;28;20819;-73
2022/02/19 11:12:37;;;;;;;5.07;2.20;;;9.50;48.60;;;;;;4976053;28;21020;-77
2022/02/19 11:15:05;;;;;;;5.10;2.50;;;9.60;47.70;;;;;;4975186;28;20431;-74
2022/02/19 11:17:31;;;;;;;8.23;1.87;;;9.90;47.10;;;;;;4974427;28;20429;-75
2022/02/19 11:20:03;;;;;;;4.10;1.63;;;9.90;46.30;;;;;;4976541;28;20597;-75
2022/02/19 11:22:30;;;;;;;3.93;1.70;;;10.10;45.40;;;;;;4974664;28;20481;-75
2022/02/19 11:25:00;;;;;;;8.20;2.43;;;10.00;45.10;;;;;;4974060;28;20496;-75
2022/02/19 11:27:29;;;;;;;4.70;1.70;;;9.90;45.30;;;;;;4975799;28;20669;-75
2022/02/19 11:30:05;;;;;;;4.13;1.20;;;9.90;45.30;;;;;;4974394;28;20533;-77
2022/02/19 11:32:35;;;;;;;3.53;1.57;;;10.20;44.90;;;;;;4972378;28;20474;-74
2022/02/19 11:35:01;;;;;;;4.43;1.70;;;10.30;45.00;;;;;;4980020;28;20863;-76
2022/02/19 11:37:32;;;;;;;7.17;1.70;;;10.40;44.10;;;;;;4969225;28;21280;-77
2022/02/19 11:40:11;;;;;;;4.53;1.77;;;10.30;43.90;;;;;;4968674;28;20462;-76
2022/02/19 11:42:43;;;;;;;5.40;2.00;;;10.40;44.10;;;;;;4964102;28;20474;-77
2022/02/19 11:45:22;;;;;;;6.30;1.40;;;10.30;42.70;;;;;;4967444;28;20430;-77
2022/02/19 11:47:49;;;;;;;3.90;1.77;;;10.20;43.00;;;;;;4971008;28;20423;-74
2022/02/19 11:50:26;;;;;;;3.00;1.43;;;10.30;43.00;;;;;;4973090;28;20435;-76
2022/02/19 11:53:21;;;;;;;4.57;1.50;;;10.50;43.00;;;;;;4965339;28;20426;-75
2022/02/19 11:55:47;;;;;;;4.60;1.60;;;10.80;44.10;;;;;;4929923;29;20452;-74
2022/02/19 11:58:19;;;;;;;7.47;2.03;;;10.90;44.30;;;;;;4914171;29;21073;-74
2022/02/19 12:00:55;;;;;;;2.90;1.63;;;10.80;45.00;;;;;;4929641;29;20676;-73
2022/02/19 12:03:34;;;;;;;6.67;2.97;;;11.00;44.70;;;;;;4937834;29;20886;-74
2022/02/19 12:06:06;;;;;;;6.50;1.50;;;10.90;44.50;;;;;;4930449;29;20511;-74
2022/02/19 12:08:47;;;;;;;3.57;1.47;;;11.00;43.40;;;;;;4930030;29;20432;-70
2022/02/19 12:11:20;;;;;;;3.63;1.40;;;11.20;42.80;;;;;;4930515;29;20438;-72
2022/02/19 12:13:47;;;;;;;8.47;1.50;;;11.30;41.60;;;;;;4930315;29;20428;-72
2022/02/19 12:16:31;;;;;;;6.30;2.50;;;11.30;42.20;;;;;;4929310;29;20460;-72
2022/02/19 12:19:03;;;;;;;6.17;1.70;;;11.40;42.30;;;;;;4929386;29;20487;-72
2022/02/19 12:21:32;;;;;;;5.87;1.63;;;11.10;41.80;;;;;;4929426;29;20423;-71
2022/02/19 12:24:27;;;;;;;5.43;1.70;;;11.10;42.30;;;;;;4929167;29;20437;-70
2022/02/19 12:26:55;;;;;;;5.20;1.57;;;11.20;41.60;;;;;;4926837;29;21051;-71
2022/02/19 12:29:25;;;;;;;4.80;1.50;;;11.20;40.70;;;;;;4913375;29;20454;-71
2022/02/19 12:32:10;;;;;;;4.60;1.63;;;10.70;40.30;;;;;;4942977;28;20430;-71
2022/02/19 12:34:39;;;;;;;3.30;1.10;;;10.60;40.60;;;;;;4959910;28;20422;-71
2022/02/19 12:37:12;;;;;;;2.80;1.40;;;10.40;41.10;;;;;;4962252;28;20526;-72
2022/02/19 12:40:00;;;;;;;5.60;1.60;;;10.00;42.40;;;;;;4957734;28;20516;-70
2022/02/19 12:42:31;;;;;;;5.13;1.50;;;9.60;43.90;;;;;;4969448;28;20427;-71
2022/02/19 12:45:08;;;;;;;2.97;1.47;;;9.50;44.10;;;;;;4968306;28;20443;-73
2022/02/19 12:47:39;;;;;;;3.70;1.50;;;9.50;44.10;;;;;;4963591;28;20431;-72
2022/02/19 12:50:06;;;;;;;5.77;1.40;;;9.50;44.60;;;;;;4966865;28;20443;-74
2022/02/19 12:52:32;;;;;;;7.17;2.53;;;9.40;44.20;;;;;;4967635;28;20987;-73
2022/02/19 12:54:58;;;;;;;6.90;1.60;;;9.40;44.30;;;;;;4964695;28;20473;-72
2022/02/19 12:57:24;;;;;;;2.87;1.53;;;9.60;44.10;;;;;;4965944;28;20451;-72
2022/02/19 12:59:53;;;;;;;6.73;1.47;;;9.80;43.50;;;;;;4967153;28;20521;-71
2022/02/19 13:02:23;;;;;;;2.87;1.40;;;10.10;43.40;;;;;;4962171;28;20820;-69
2022/02/19 13:05:02;;;;;;;3.40;1.33;;;10.40;41.60;;;;;;4978875;28;20481;-68
2022/02/19 13:07:29;;;;;;;5.70;2.27;;;10.60;41.80;;;;;;4985492;28;20481;-72